createdAt,value
2017-12-21T00:02:28.054Z,1.00
2017-12-21T00:07:57.028Z,1.00
2017-12-21T00:13:25.189Z,1.00
2017-12-21T00:18:53.387Z,0.90
2017-12-21T00:24:21.593Z,0.90
2017-12-21T00:29:49.770Z,0.90
2017-12-21T00:35:17.962Z,0.90
2017-12-21T00:40:46.152Z,0.90
2017-12-21T00:46:14.363Z,0.90
2017-12-21T00:51:42.590Z,0.90
2017-12-21T00:57:12.395Z,0.80
2017-12-21T01:02:40.805Z,0.80
2017-12-21T01:08:09.267Z,0.80
2017-12-21T01:13:38.472Z,0.80
2017-12-21T01:19:06.656Z,0.80
2017-12-21T01:24:34.840Z,0.70
2017-12-21T01:30:03.040Z,0.70
2017-12-21T01:35:31.240Z,0.60
2017-12-21T01:41:03.352Z,0.60
2017-12-21T01:46:31.579Z,0.60
2017-12-21T01:51:59.785Z,0.60
2017-12-21T01:57:29.124Z,0.60
2017-12-21T02:02:57.554Z,0.50
2017-12-21T02:08:25.773Z,0.50
2017-12-21T02:13:54.045Z,0.50
2017-12-21T02:19:22.247Z,0.60
2017-12-21T02:24:50.453Z,0.60
2017-12-21T02:30:18.630Z,0.60
2017-12-21T02:35:46.831Z,0.60
2017-12-21T02:41:15.383Z,0.60
2017-12-21T02:46:43.583Z,0.60
2017-12-21T02:52:12.083Z,0.60
2017-12-21T02:57:40.599Z,0.50
2017-12-21T03:03:09.089Z,0.50
2017-12-21T03:08:38.886Z,0.50
2017-12-21T03:14:07.394Z,0.50
2017-12-21T03:19:35.806Z,0.50
2017-12-21T03:25:05.508Z,0.40
2017-12-21T03:30:33.683Z,0.40
2017-12-21T03:36:02.656Z,0.40
2017-12-21T03:41:30.839Z,0.40
2017-12-21T03:46:59.816Z,0.50
2017-12-21T03:52:28.058Z,0.50
2017-12-21T03:57:56.245Z,0.50
2017-12-21T04:03:24.425Z,0.50
2017-12-21T04:08:52.589Z,0.60
2017-12-21T04:14:20.768Z,0.60
2017-12-21T04:19:48.957Z,0.60
2017-12-21T04:25:17.150Z,0.60
2017-12-21T04:30:45.335Z,0.70
2017-12-21T04:36:13.505Z,0.70
2017-12-21T04:41:41.695Z,0.70
2017-12-21T04:47:09.877Z,0.70
2017-12-21T04:52:38.050Z,0.70
2017-12-21T04:58:06.279Z,0.70
2017-12-21T05:03:34.470Z,0.80
2017-12-21T05:09:03.419Z,0.80
2017-12-21T05:14:33.010Z,0.90
2017-12-21T05:20:01.185Z,0.80
2017-12-21T05:25:29.366Z,0.80
2017-12-21T05:30:57.560Z,0.80
2017-12-21T05:36:25.773Z,0.80
2017-12-21T05:41:54.000Z,0.80
2017-12-21T05:47:22.197Z,0.70
2017-12-21T05:52:50.397Z,0.70
2017-12-21T05:58:18.585Z,0.60
2017-12-21T06:03:47.549Z,0.60
2017-12-21T06:09:15.736Z,0.50
2017-12-21T06:14:44.679Z,0.50
2017-12-21T06:20:13.703Z,0.50
2017-12-21T06:25:42.657Z,0.40
2017-12-21T06:31:11.606Z,0.40
2017-12-21T06:36:39.777Z,0.40
2017-12-21T06:42:07.973Z,0.40
2017-12-21T06:47:36.146Z,0.40
2017-12-21T06:53:05.109Z,0.40
2017-12-21T06:58:33.307Z,0.30
2017-12-21T07:04:02.242Z,0.30
2017-12-21T07:09:30.428Z,0.30
2017-12-21T07:14:58.603Z,0.20
2017-12-21T07:20:27.545Z,0.20
2017-12-21T07:25:55.736Z,0.20
2017-12-21T07:31:23.913Z,0.10
2017-12-21T07:36:52.094Z,0.10
2017-12-21T07:42:21.032Z,0.20
2017-12-21T07:47:50.910Z,0.20
2017-12-21T07:53:19.095Z,0.30
2017-12-21T07:58:48.070Z,0.30
2017-12-21T08:04:16.246Z,0.40
2017-12-21T08:09:44.448Z,0.40
2017-12-21T08:15:12.651Z,0.50
2017-12-21T08:20:40.842Z,0.50
2017-12-21T08:26:09.072Z,0.60
2017-12-21T08:31:37.336Z,0.60
2017-12-21T08:37:05.518Z,0.70
2017-12-21T08:42:33.693Z,0.80
2017-12-21T08:48:01.873Z,0.90
2017-12-21T08:53:30.049Z,1.10
2017-12-21T08:58:59.005Z,1.30
2017-12-21T09:04:27.189Z,1.50
2017-12-21T09:09:55.359Z,1.70
2017-12-21T09:15:23.567Z,1.80
2017-12-21T09:20:51.762Z,1.90
2017-12-21T09:26:19.954Z,2.00
2017-12-21T09:31:48.156Z,2.10
2017-12-21T09:37:16.337Z,2.20
2017-12-21T09:42:45.308Z,2.30
2017-12-21T09:48:13.481Z,2.40
2017-12-21T09:53:41.665Z,2.50
2017-12-21T09:59:09.860Z,2.70
2017-12-21T10:04:38.060Z,2.80
2017-12-21T10:10:07.176Z,2.90
2017-12-21T10:15:35.349Z,3.00
2017-12-21T10:21:03.525Z,3.10
2017-12-21T10:26:31.712Z,3.20
2017-12-21T10:31:59.921Z,3.30
2017-12-21T10:37:28.092Z,3.40
2017-12-21T10:42:56.280Z,3.50
2017-12-21T10:48:24.513Z,3.60
2017-12-21T10:53:52.718Z,3.70
2017-12-21T10:59:20.892Z,4.00
2017-12-21T11:04:49.847Z,4.10
2017-12-21T11:10:18.073Z,4.20
2017-12-21T11:15:46.276Z,4.30
2017-12-21T11:21:14.459Z,4.40
2017-12-21T11:26:42.633Z,4.50
2017-12-21T11:32:10.829Z,4.60
2017-12-21T11:37:39.005Z,4.60
2017-12-21T11:43:07.187Z,4.70
2017-12-21T11:48:35.363Z,4.80
2017-12-21T11:54:03.550Z,4.90
2017-12-21T11:59:31.764Z,5.00
2017-12-21T12:04:59.961Z,5.00
2017-12-21T12:10:28.137Z,5.00
2017-12-21T12:15:56.326Z,4.90
2017-12-21T12:21:24.518Z,5.00
2017-12-21T12:26:52.899Z,4.90
2017-12-21T12:32:22.107Z,4.90
2017-12-21T12:37:50.298Z,4.90
2017-12-21T12:43:19.237Z,4.80
2017-12-21T12:48:48.193Z,4.80
2017-12-21T12:54:16.377Z,4.80
2017-12-21T12:59:44.574Z,4.80
2017-12-21T13:05:14.510Z,4.70
2017-12-21T13:10:42.708Z,4.70
2017-12-21T13:16:10.886Z,4.70
2017-12-21T13:21:39.096Z,4.70
2017-12-21T13:27:07.282Z,4.70
2017-12-21T13:32:35.453Z,4.70
2017-12-21T13:38:03.648Z,4.70
2017-12-21T13:43:31.835Z,4.70
2017-12-21T13:49:00.022Z,4.60
2017-12-21T13:54:28.241Z,4.50
2017-12-21T13:59:56.440Z,4.40
2017-12-21T14:05:24.683Z,4.20
2017-12-21T14:10:52.852Z,4.00
2017-12-21T14:16:21.044Z,3.90
2017-12-21T14:21:49.237Z,3.90
2017-12-21T14:27:17.439Z,3.80
2017-12-21T14:32:45.625Z,3.70
2017-12-21T14:38:13.812Z,3.60
2017-12-21T14:43:42.095Z,3.50
2017-12-21T14:49:10.366Z,3.40
2017-12-21T14:54:39.325Z,3.40
2017-12-21T15:00:07.533Z,3.40
2017-12-21T15:05:36.499Z,3.40
2017-12-21T15:11:04.674Z,3.40
2017-12-21T15:16:32.918Z,3.40
2017-12-21T15:22:01.859Z,3.40
2017-12-21T15:27:30.828Z,3.40
2017-12-21T15:32:59.007Z,3.40
2017-12-21T15:38:27.950Z,3.40
2017-12-21T15:43:57.830Z,3.40
2017-12-21T15:49:26.020Z,3.40
2017-12-21T15:54:54.972Z,3.40
2017-12-21T16:00:23.919Z,3.40
2017-12-21T16:05:52.090Z,3.30
2017-12-21T16:11:20.925Z,3.30
2017-12-21T16:16:49.125Z,3.30
2017-12-21T16:22:21.603Z,3.30
2017-12-21T16:27:51.937Z,3.30
2017-12-21T16:33:20.229Z,3.30
2017-12-21T16:38:48.610Z,3.30
2017-12-21T16:44:16.911Z,3.30
2017-12-21T16:49:45.200Z,3.30
2017-12-21T16:55:13.584Z,3.30
2017-12-21T17:00:42.179Z,3.30
2017-12-21T17:06:11.198Z,3.30
2017-12-21T17:11:41.477Z,3.30
2017-12-21T17:17:09.757Z,3.40
2017-12-21T17:22:38.726Z,3.40
2017-12-21T17:28:12.014Z,3.40
2017-12-21T17:33:40.277Z,3.40
2017-12-21T17:39:11.977Z,3.40
2017-12-21T17:44:41.468Z,3.50
2017-12-21T17:50:09.677Z,3.50
2017-12-21T17:55:38.008Z,3.50
2017-12-21T18:01:07.692Z,3.50
2017-12-21T18:06:36.676Z,3.50
2017-12-21T18:12:05.314Z,3.50
2017-12-21T18:17:34.282Z,3.50
2017-12-21T18:23:02.484Z,3.50
2017-12-21T18:28:30.664Z,3.60
2017-12-21T18:33:59.614Z,3.60
2017-12-21T18:39:27.802Z,3.60
2017-12-21T18:44:56.076Z,3.60
2017-12-21T18:50:24.326Z,3.60
2017-12-21T18:55:52.525Z,3.60
2017-12-21T19:01:20.726Z,3.60
2017-12-21T19:06:48.894Z,3.60
2017-12-21T19:12:17.112Z,3.70
2017-12-21T19:17:45.304Z,3.70
2017-12-21T19:23:13.512Z,3.70
2017-12-21T19:28:45.871Z,3.70
2017-12-21T19:34:14.079Z,3.60
2017-12-21T19:39:42.267Z,3.60
2017-12-21T19:45:10.561Z,3.60
2017-12-21T19:50:39.547Z,3.60
2017-12-21T19:56:07.748Z,3.60
2017-12-21T20:01:36.000Z,3.60
2017-12-21T20:07:04.183Z,3.60
2017-12-21T20:12:33.034Z,3.70
2017-12-21T20:18:01.241Z,3.70
2017-12-21T20:23:29.429Z,3.70
2017-12-21T20:28:57.614Z,3.70
2017-12-21T20:34:25.800Z,3.70
2017-12-21T20:39:53.991Z,3.70
2017-12-21T20:45:22.175Z,3.70
2017-12-21T20:50:51.110Z,3.70
2017-12-21T20:56:19.338Z,3.70
2017-12-21T21:01:47.522Z,3.70
2017-12-21T21:07:16.494Z,3.70
2017-12-21T21:12:45.674Z,3.70
2017-12-21T21:18:14.901Z,3.70
2017-12-21T21:23:43.140Z,3.70
2017-12-21T21:29:11.352Z,3.70
2017-12-21T21:34:39.580Z,3.70
2017-12-21T21:40:13.319Z,3.70
2017-12-21T21:45:41.814Z,3.60
2017-12-21T21:51:11.047Z,3.60
2017-12-21T21:56:39.296Z,3.60
2017-12-21T22:02:07.532Z,3.70
2017-12-21T22:07:35.720Z,3.70
2017-12-21T22:13:03.916Z,3.70
2017-12-21T22:18:32.887Z,3.70
2017-12-21T22:24:03.585Z,3.70
2017-12-21T22:29:31.768Z,3.80
2017-12-21T22:35:00.922Z,3.70
2017-12-21T22:40:29.107Z,3.70
2017-12-21T22:45:57.299Z,3.70
2017-12-21T22:51:25.474Z,3.70
2017-12-21T22:56:53.664Z,3.70
2017-12-21T23:02:21.837Z,3.70
2017-12-21T23:07:50.019Z,3.70
2017-12-21T23:13:19.952Z,3.70
2017-12-21T23:18:48.148Z,3.70
2017-12-21T23:24:16.341Z,3.70
2017-12-21T23:29:44.532Z,3.70
2017-12-21T23:35:12.774Z,3.60
2017-12-21T23:40:41.423Z,3.60
2017-12-21T23:46:09.701Z,3.60
2017-12-21T23:51:37.896Z,3.70
2017-12-21T23:57:06.065Z,3.70
